Time;durP1;ratioP1;P1;durP2;ratioP2;P2;SDS_P1;SDS_P2;PMS_P1;PMS_P2;Temp;Humidity;BMP_temperature;BMP_pressure;BME280_temperature;BME280_humidity;BME280_pressure;Samples;Min_cycle;Max_cycle;Signal;HPM_P1;HPM_P2
2021/06/17 00:00:01;;;;;;;;;;;;;;;;;;5135794;27;19914;-69
2021/06/17 00:02:27;;;;;;;;;;;;;;;;;;5133771;27;20010;-69
2021/06/17 00:04:53;;;;;;;;;;;;;;;;;;5140112;27;20353;-69
2021/06/17 00:07:19;;;;;;;;;;;;;;;;;;5137396;27;19907;-69
2021/06/17 00:09:45;;;;;;;;;;;;;;;;;;5136994;27;20397;-69
2021/06/17 00:12:10;;;;;;;;;;;;;;;;;;5136535;27;19939;-69
2021/06/17 00:14:36;;;;;;;;;;;;;;;;;;5132579;27;19912;-69
2021/06/17 00:19:47;;;;;;;;;;;;;;;;;;5135087;27;19918;-69
2021/06/17 00:22:13;;;;;;;;;;;;;;;;;;5118559;27;19911;-69
2021/06/17 00:24:39;;;;;;;;;;;;;;;;;;5136736;27;19947;-69
2021/06/17 00:27:05;;;;;;;;;;;;;;;;;;5136051;27;19959;-69
2021/06/17 00:29:30;;;;;;;;;;;;;;;;;;5132993;27;20364;-64
2021/06/17 00:31:56;;;;;;;;;;;;;;;;;;5140352;27;19914;-64
2021/06/17 00:34:22;;;;;;;;;;;;;;;;;;5136552;27;20340;-64
2021/06/17 00:36:48;;;;;;;;;;;;;;;;;;5136814;27;20355;-63
2021/06/17 00:39:14;;;;;;;;;;;;;;;;;;5136324;27;19911;-64
2021/06/17 00:41:40;;;;;;;;;;;;;;;;;;5133082;27;20006;-64
2021/06/17 00:44:06;;;;;;;;;;;;;;;;;;5139037;27;19908;-64
2021/06/17 00:46:32;;;;;;;;;;;;;;;;;;5136888;27;19911;-64
2021/06/17 00:48:58;;;;;;;;;;;;;;;;;;5132204;27;19990;-64
2021/06/17 00:51:24;;;;;;;;;;;;;;;;;;5135758;27;20369;-64
2021/06/17 00:53:49;;;;;;;;;;;;;;;;;;5133687;27;19998;-64
2021/06/17 00:56:16;;;;;;;;;;;;;;;;;;5136003;27;20290;-64
2021/06/17 00:58:42;;;;;;;;;;;;;;;;;;5137582;27;19911;-64
2021/06/17 01:01:08;;;;;;;;;;;;;;;;;;5135857;27;19912;-64
2021/06/17 01:03:34;;;;;;;;;;;;;;;;;;5136353;27;19912;-64
2021/06/17 01:06:00;;;;;;;;;;;;;;;;;;5134764;27;19930;-64
2021/06/17 01:08:26;;;;;;;;;;;;;;;;;;5133258;27;19919;-64
2021/06/17 01:10:52;;;;;;;;;;;;;;;;;;5138656;27;20313;-64
2021/06/17 01:13:18;;;;;;;;;;;;;;;;;;5136077;27;19986;-64
2021/06/17 01:15:44;;;;;;;;;;;;;;;;;;5135796;27;20445;-64
2021/06/17 01:18:10;;;;;;;;;;;;;;;;;;5131762;27;19959;-64
2021/06/17 01:20:36;;;;;;;;;;;;;;;;;;5131452;27;19954;-64
2021/06/17 01:23:02;;;;;;;;;;;;;;;;;;5138977;27;20277;-63
2021/06/17 01:25:28;;;;;;;;;;;;;;;;;;5135707;27;19916;-64
2021/06/17 01:27:54;;;;;;;;;;;;;;;;;;5135681;27;19964;-64
2021/06/17 01:30:20;;;;;;;;;;;;;;;;;;5135760;27;19955;-64
2021/06/17 01:32:46;;;;;;;;;;;;;;;;;;5132222;27;19912;-64
2021/06/17 01:35:12;;;;;;;;;;;;;;;;;;5135923;27;19933;-64
2021/06/17 01:37:37;;;;;;;;;;;;;;;;;;5118435;27;19907;-64
2021/06/17 01:40:03;;;;;;;;;;;;;;;;;;5135364;27;19912;-64
2021/06/17 01:42:29;;;;;;;;;;;;;;;;;;5135168;27;19912;-64
2021/06/17 01:44:55;;;;;;;;;;;;;;;;;;5133466;27;19918;-64
2021/06/17 01:47:21;;;;;;;;;;;;;;;;;;5134255;27;19990;-64
2021/06/17 01:49:47;;;;;;;;;;;;;;;;;;5132992;27;20018;-64
2021/06/17 01:52:13;;;;;;;;;;;;;;;;;;5135027;27;19919;-64
2021/06/17 01:54:39;;;;;;;;;;;;;;;;;;5135006;27;19911;-64
2021/06/17 01:57:04;;;;;;;;;;;;;;;;;;5135060;27;19915;-64
2021/06/17 01:59:31;;;;;;;;;;;;;;;;;;5130842;27;20301;-64
2021/06/17 02:01:57;;;;;;;;;;;;;;;;;;5138401;27;19914;-64
2021/06/17 02:04:23;;;;;;;;;;;;;;;;;;5134837;27;19911;-64
2021/06/17 02:06:49;;;;;;;;;;;;;;;;;;5135050;27;20231;-64
2021/06/17 02:09:15;;;;;;;;;;;;;;;;;;5133976;27;19971;-64
2021/06/17 02:11:41;;;;;;;;;;;;;;;;;;5131273;27;20085;-64
2021/06/17 02:14:07;;;;;;;;;;;;;;;;;;5136983;27;19914;-64
2021/06/17 02:16:33;;;;;;;;;;;;;;;;;;5135668;27;20427;-64
2021/06/17 02:18:59;;;;;;;;;;;;;;;;;;5129281;27;19919;-64
2021/06/17 02:21:24;;;;;;;;;;;;;;;;;;5134917;27;19911;-64
2021/06/17 02:23:50;;;;;;;;;;;;;;;;;;5132262;27;19911;-64
2021/06/17 02:26:16;;;;;;;;;;;;;;;;;;5134789;27;19960;-64
2021/06/17 02:28:42;;;;;;;;;;;;;;;;;;5135731;27;20386;-64
2021/06/17 02:31:08;;;;;;;;;;;;;;;;;;5133712;27;19911;-64
2021/06/17 02:33:34;;;;;;;;;;;;;;;;;;5116189;27;19999;-64
2021/06/17 02:36:00;;;;;;;;;;;;;;;;;;5133418;27;20047;-64
2021/06/17 02:38:26;;;;;;;;;;;;;;;;;;5131674;27;20388;-64
2021/06/17 02:40:52;;;;;;;;;;;;;;;;;;5136568;27;19907;-64
2021/06/17 02:43:17;;;;;;;;;;;;;;;;;;5134826;27;19911;-64
2021/06/17 02:45:43;;;;;;;;;;;;;;;;;;5134434;27;19963;-64
2021/06/17 02:48:09;;;;;;;;;;;;;;;;;;5111679;27;19915;-64
2021/06/17 02:50:35;;;;;;;;;;;;;;;;;;5129397;27;19962;-64
2021/06/17 02:53:01;;;;;;;;;;;;;;;;;;5137276;27;20238;-64
2021/06/17 02:55:27;;;;;;;;;;;;;;;;;;5134253;27;19994;-64
2021/06/17 02:57:53;;;;;;;;;;;;;;;;;;5134111;27;19950;-64
2021/06/17 03:00:19;;;;;;;;;;;;;;;;;;5134233;27;19918;-64
2021/06/17 03:02:45;;;;;;;;;;;;;;;;;;5130931;27;20378;-64
2021/06/17 03:05:10;;;;;;;;;;;;;;;;;;5134528;27;19960;-64
2021/06/17 03:07:36;;;;;;;;;;;;;;;;;;5116412;28;19915;-64
2021/06/17 03:10:02;;;;;;;;;;;;;;;;;;5133670;27;19923;-64
2021/06/17 03:12:28;;;;;;;;;;;;;;;;;;5134147;27;19968;-49
2021/06/17 03:14:55;;;;;;;;;;;;;;;;;;5132124;27;19912;-52
2021/06/17 03:17:21;;;;;;;;;;;;;;;;;;5132898;27;20323;-49
2021/06/17 03:19:47;;;;;;;;;;;;;;;;;;5136667;27;20040;-49
2021/06/17 03:22:12;;;;;;;;;;;;;;;;;;5125469;27;19927;-49
2021/06/17 03:24:38;;;;;;;;;;;;;;;;;;5143490;27;19911;-54
2021/06/17 03:27:04;;;;;;;;;;;;;;;;;;5140498;27;19911;-51
2021/06/17 03:29:30;;;;;;;;;;;;;;;;;;5141441;27;19920;-51
2021/06/17 03:31:56;;;;;;;;;;;;;;;;;;5150321;27;19946;-53
2021/06/17 03:34:22;;;;;;;;;;;;;;;;;;5146544;27;19934;-51
2021/06/17 03:36:48;;;;;;;;;;;;;;;;;;5140443;27;20273;-49
2021/06/17 03:39:14;;;;;;;;;;;;;;;;;;5137607;27;19915;-50
2021/06/17 03:41:40;;;;;;;;;;;;;;;;;;5139227;27;20011;-50
2021/06/17 03:44:06;;;;;;;;;;;;;;;;;;5139889;27;19930;-52
2021/06/17 03:46:32;;;;;;;;;;;;;;;;;;5138642;27;20523;-49
2021/06/17 03:48:58;;;;;;;;;;;;;;;;;;5133517;27;19919;-50
2021/06/17 03:51:24;;;;;;;;;;;;;;;;;;5137525;27;19911;-53
2021/06/17 03:53:50;;;;;;;;;;;;;;;;;;5148518;27;19911;-53
2021/06/17 03:56:16;;;;;;;;;;;;;;;;;;5137988;27;20031;-54
2021/06/17 03:58:42;;;;;;;;;;;;;;;;;;5138717;27;19908;-51
2021/06/17 04:01:08;;;;;;;;;;;;;;;;;;5137656;27;19964;-55
2021/06/17 04:03:33;;;;;;;;;;;;;;;;;;5137387;27;20282;-54
2021/06/17 04:05:59;;;;;;;;;;;;;;;;;;5135945;27;19911;-52
2021/06/17 04:08:25;;;;;;;;;;;;;;;;;;5134782;27;20374;-54
2021/06/17 04:10:51;;;;;;;;;;;;;;;;;;5140001;27;19908;-54
2021/06/17 04:13:17;;;;;;;;;;;;;;;;;;5137375;27;20040;-54
2021/06/17 04:15:43;;;;;;;;;;;;;;;;;;5136930;27;19916;-51
2021/06/17 04:18:09;;;;;;;;;;;;;;;;;;5132461;27;19915;-51
2021/06/17 04:20:35;;;;;;;;;;;;;;;;;;5132661;27;19918;-53
2021/06/17 04:23:01;;;;;;;;;;;;;;;;;;5140892;27;20282;-53
2021/06/17 04:25:27;;;;;;;;;;;;;;;;;;5137074;27;19911;-54
2021/06/17 04:27:53;;;;;;;;;;;;;;;;;;5136394;27;19911;-49
2021/06/17 04:30:18;;;;;;;;;;;;;;;;;;5137104;27;19954;-54
2021/06/17 04:32:44;;;;;;;;;;;;;;;;;;5133710;27;19918;-50
2021/06/17 04:35:10;;;;;;;;;;;;;;;;;;5138172;27;19907;-53
2021/06/17 04:37:36;;;;;;;;;;;;;;;;;;5139086;27;19914;-49
2021/06/17 04:40:02;;;;;;;;;;;;;;;;;;5136469;27;20019;-50
2021/06/17 04:42:28;;;;;;;;;;;;;;;;;;5136504;27;19916;-48
2021/06/17 04:44:54;;;;;;;;;;;;;;;;;;5135166;27;19912;-50
2021/06/17 04:47:20;;;;;;;;;;;;;;;;;;5151732;27;19922;-49
2021/06/17 04:49:46;;;;;;;;;;;;;;;;;;5133880;27;19923;-50
2021/06/17 04:52:12;;;;;;;;;;;;;;;;;;5136754;27;19919;-51
2021/06/17 04:54:37;;;;;;;;;;;;;;;;;;5136661;27;20425;-50
2021/06/17 04:57:03;;;;;;;;;;;;;;;;;;5135964;27;19911;-49
2021/06/17 04:59:29;;;;;;;;;;;;;;;;;;5138154;27;20359;-51
2021/06/17 05:01:57;;;;;;;;;;;;;;;;;;5147056;27;20281;-51
2021/06/17 05:04:22;;;;;;;;;;;;;;;;;;5140798;27;20399;-50
2021/06/17 05:07:10;;;;;;;;;;;;;;;;;;5132957;27;20144;-49
2021/06/17 05:12:21;;;;;;;;;;;;;;;;;;5128872;27;19918;-50
2021/06/17 05:14:47;;;;;;;;;;;;;;;;;;5142461;27;19911;-50
2021/06/17 05:17:12;;;;;;;;;;;;;;;;;;5142530;27;19915;-64
2021/06/17 05:19:39;;;;;;;;;;;;;;;;;;5144278;27;19945;-64
2021/06/17 05:22:04;;;;;;;;;;;;;;;;;;5142670;27;19912;-63
2021/06/17 05:24:30;;;;;;;;;;;;;;;;;;5140965;27;20382;-64
2021/06/17 05:26:56;;;;;;;;;;;;;;;;;;5134562;27;19911;-65
2021/06/17 05:29:22;;;;;;;;;;;;;;;;;;5134394;27;19924;-65
2021/06/17 05:31:48;;;;;;;;;;;;;;;;;;5137343;27;19950;-64
2021/06/17 05:34:14;;;;;;;;;;;;;;;;;;5135802;27;19911;-64
2021/06/17 05:36:40;;;;;;;;;;;;;;;;;;5135397;27;19912;-64
2021/06/17 05:39:06;;;;;;;;;;;;;;;;;;5135041;27;19907;-64
2021/06/17 05:41:32;;;;;;;;;;;;;;;;;;5125103;27;19919;-65
2021/06/17 05:43:58;;;;;;;;;;;;;;;;;;5135895;27;19911;-62
2021/06/17 05:46:24;;;;;;;;;;;;;;;;;;5142225;27;20405;-64
2021/06/17 05:48:50;;;;;;;;;;;;;;;;;;5131513;27;20018;-64
2021/06/17 05:51:15;;;;;;;;;;;;;;;;;;5133925;27;19911;-63
2021/06/17 05:53:41;;;;;;;;;;;;;;;;;;5130796;27;19911;-63
2021/06/17 05:56:07;;;;;;;;;;;;;;;;;;5136585;27;20273;-64
2021/06/17 05:58:35;;;;;;;;;;;;;;;;;;5132171;27;20423;-63
2021/06/17 06:01:01;;;;;;;;;;;;;;;;;;5130773;27;19946;-63
2021/06/17 06:03:27;;;;;;;;;;;;;;;;;;5134335;27;20411;-63
2021/06/17 06:05:53;;;;;;;;;;;;;;;;;;5131925;27;19919;-63
2021/06/17 06:08:19;;;;;;;;;;;;;;;;;;5132897;27;19915;-63
2021/06/17 06:10:45;;;;;;;;;;;;;;;;;;5135709;27;19907;-63
2021/06/17 06:13:11;;;;;;;;;;;;;;;;;;5134267;27;20366;-63
2021/06/17 06:15:37;;;;;;;;;;;;;;;;;;5133647;27;20335;-63
2021/06/17 06:18:03;;;;;;;;;;;;;;;;;;5132262;27;19915;-64
2021/06/17 06:20:28;;;;;;;;;;;;;;;;;;5115598;27;19990;-64
2021/06/17 06:22:54;;;;;;;;;;;;;;;;;;5146331;27;19915;-64
2021/06/17 06:25:20;;;;;;;;;;;;;;;;;;5141651;27;19911;-63
2021/06/17 06:27:46;;;;;;;;;;;;;;;;;;5140255;27;19955;-64
2021/06/17 06:30:12;;;;;;;;;;;;;;;;;;5127754;27;20307;-64
2021/06/17 06:32:38;;;;;;;;;;;;;;;;;;5139797;27;19919;-64
2021/06/17 06:35:04;;;;;;;;;;;;;;;;;;5147230;27;19915;-64
2021/06/17 06:37:30;;;;;;;;;;;;;;;;;;5141591;27;19915;-63
2021/06/17 06:39:56;;;;;;;;;;;;;;;;;;5140704;27;19974;-64
2021/06/17 06:42:22;;;;;;;;;;;;;;;;;;5140728;27;19963;-64
2021/06/17 06:44:48;;;;;;;;;;;;;;;;;;5139914;27;20005;-64
2021/06/17 06:47:13;;;;;;;;;;;;;;;;;;5134293;27;20002;-64
2021/06/17 06:49:39;;;;;;;;;;;;;;;;;;5118223;27;19958;-64
2021/06/17 06:52:05;;;;;;;;;;;;;;;;;;5130071;27;19907;-64
2021/06/17 06:54:31;;;;;;;;;;;;;;;;;;5134071;27;19922;-63
2021/06/17 06:56:57;;;;;;;;;;;;;;;;;;5131656;27;20266;-63
2021/06/17 06:59:23;;;;;;;;;;;;;;;;;;5123493;27;19919;-63
2021/06/17 07:01:49;;;;;;;;;;;;;;;;;;5135716;27;19911;-63
2021/06/17 07:04:15;;;;;;;;;;;;;;;;;;5133879;27;20358;-63
2021/06/17 07:06:42;;;;;;;;;;;;;;;;;;5133600;27;19919;-63
2021/06/17 07:09:08;;;;;;;;;;;;;;;;;;5131267;27;19923;-63
2021/06/17 07:11:33;;;;;;;;;;;;;;;;;;5129060;28;20381;-65
2021/06/17 07:13:59;;;;;;;;;;;;;;;;;;5137164;27;20024;-63
2021/06/17 07:16:25;;;;;;;;;;;;;;;;;;5133238;27;19911;-63
2021/06/17 07:18:51;;;;;;;;;;;;;;;;;;5104763;28;19912;-64
2021/06/17 07:21:17;;;;;;;;;;;;;;;;;;5124060;27;20379;-63
2021/06/17 07:23:45;;;;;;;;;;;;;;;;;;5130175;27;19962;-63
2021/06/17 07:26:11;;;;;;;;;;;;;;;;;;5134111;27;19907;-63
2021/06/17 07:28:37;;;;;;;;;;;;;;;;;;5112304;28;19930;-63
2021/06/17 07:31:03;;;;;;;;;;;;;;;;;;5128368;27;19915;-63
2021/06/17 07:33:29;;;;;;;;;;;;;;;;;;5133575;27;19916;-63
2021/06/17 07:35:55;;;;;;;;;;;;;;;;;;5131439;27;19947;-63
2021/06/17 07:38:20;;;;;;;;;;;;;;;;;;5131422;27;19915;-64
2021/06/17 07:40:46;;;;;;;;;;;;;;;;;;5132701;27;19912;-64
2021/06/17 07:43:12;;;;;;;;;;;;;;;;;;5131043;27;19915;-64
2021/06/17 07:45:38;;;;;;;;;;;;;;;;;;5131578;27;19955;-64
2021/06/17 07:48:04;;;;;;;;;;;;;;;;;;5127186;27;19956;-63
2021/06/17 07:50:30;;;;;;;;;;;;;;;;;;5118125;28;19965;-63
2021/06/17 07:52:56;;;;;;;;;;;;;;;;;;5133250;27;19911;-63
2021/06/17 07:55:22;;;;;;;;;;;;;;;;;;5131601;27;20219;-63
2021/06/17 07:57:48;;;;;;;;;;;;;;;;;;5112607;28;19977;-63
2021/06/17 08:00:14;;;;;;;;;;;;;;;;;;5125499;27;20284;-63
2021/06/17 08:02:40;;;;;;;;;;;;;;;;;;5128645;27;20345;-63
2021/06/17 08:05:06;;;;;;;;;;;;;;;;;;5135028;27;19994;-63
2021/06/17 08:07:32;;;;;;;;;;;;;;;;;;5132750;27;19962;-63
2021/06/17 08:09:57;;;;;;;;;;;;;;;;;;5131268;27;19926;-63
2021/06/17 08:12:26;;;;;;;;;;;;;;;;;;5133183;27;19911;-63
2021/06/17 08:14:52;;;;;;;;;;;;;;;;;;5130015;27;19926;-63
2021/06/17 08:17:18;;;;;;;;;;;;;;;;;;5135211;27;19907;-63
2021/06/17 08:19:44;;;;;;;;;;;;;;;;;;5120824;27;20362;-63
2021/06/17 08:22:11;;;;;;;;;;;;;;;;;;5133491;27;19965;-63
2021/06/17 08:24:37;;;;;;;;;;;;;;;;;;5136580;27;19912;-63
2021/06/17 08:27:03;;;;;;;;;;;;;;;;;;5135946;27;19915;-63
2021/06/17 08:29:28;;;;;;;;;;;;;;;;;;5125543;27;20147;-63
2021/06/17 08:31:54;;;;;;;;;;;;;;;;;;5139594;27;19951;-66
2021/06/17 08:34:23;;;;;;;;;;;;;;;;;;5136306;27;19919;-66
2021/06/17 08:36:49;;;;;;;;;;;;;;;;;;5136204;27;19916;-66
2021/06/17 08:39:15;;;;;;;;;;;;;;;;;;5131599;27;19911;-66
2021/06/17 08:41:41;;;;;;;;;;;;;;;;;;5148362;27;19912;-66
2021/06/17 08:44:07;;;;;;;;;;;;;;;;;;5125723;27;19915;-66
2021/06/17 08:46:33;;;;;;;;;;;;;;;;;;5136203;27;20409;-66
2021/06/17 08:48:59;;;;;;;;;;;;;;;;;;5124536;27;19915;-66
2021/06/17 08:51:25;;;;;;;;;;;;;;;;;;5126502;27;19911;-66
2021/06/17 08:53:51;;;;;;;;;;;;;;;;;;5132963;27;20286;-66
2021/06/17 08:56:17;;;;;;;;;;;;;;;;;;5136069;27;19907;-66
2021/06/17 08:58:45;;;;;;;;;;;;;;;;;;5132741;27;20285;-66
2021/06/17 09:01:11;;;;;;;;;;;;;;;;;;5114486;27;20378;-66
2021/06/17 09:03:37;;;;;;;;;;;;;;;;;;5136069;27;19958;-66
2021/06/17 09:06:03;;;;;;;;;;;;;;;;;;5134946;27;19915;-66
2021/06/17 09:08:33;;;;;;;;;;;;;;;;;;5130908;27;19999;-65
2021/06/17 09:10:59;;;;;;;;;;;;;;;;;;5138967;27;19911;-66
2021/06/17 09:13:25;;;;;;;;;;;;;;;;;;5135272;27;19919;-66
2021/06/17 09:15:54;;;;;;;;;;;;;;;;;;5135880;27;19911;-66
2021/06/17 09:18:20;;;;;;;;;;;;;;;;;;5129422;27;19994;-66
2021/06/17 09:20:46;;;;;;;;;;;;;;;;;;5117501;27;19912;-66
2021/06/17 09:23:12;;;;;;;;;;;;;;;;;;5135684;27;20327;-66
2021/06/17 09:25:38;;;;;;;;;;;;;;;;;;5142373;27;19911;-66
2021/06/17 09:28:04;;;;;;;;;;;;;;;;;;5125933;27;20002;-66
2021/06/17 09:30:30;;;;;;;;;;;;;;;;;;5138912;27;19920;-66
2021/06/17 09:33:00;;;;;;;;;;;;;;;;;;5143491;27;19919;-66
2021/06/17 09:35:26;;;;;;;;;;;;;;;;;;5142216;27;20381;-66
2021/06/17 09:37:52;;;;;;;;;;;;;;;;;;5145410;27;19907;-66
2021/06/17 09:40:18;;;;;;;;;;;;;;;;;;5143239;27;19922;-66
2021/06/17 09:42:44;;;;;;;;;;;;;;;;;;5145036;27;19946;-66
2021/06/17 09:45:09;;;;;;;;;;;;;;;;;;5143153;27;19960;-65
2021/06/17 09:47:35;;;;;;;;;;;;;;;;;;5130792;27;19915;-67
2021/06/17 09:50:06;;;;;;;;;;;;;;;;;;5118209;27;19990;-67
2021/06/17 09:52:32;;;;;;;;;;;;;;;;;;5136322;27;19912;-67
2021/06/17 09:54:58;;;;;;;;;;;;;;;;;;5116353;27;19912;-66
2021/06/17 09:57:24;;;;;;;;;;;;;;;;;;5134928;27;19918;-68
2021/06/17 09:59:50;;;;;;;;;;;;;;;;;;5134820;27;19973;-67
2021/06/17 10:02:23;;;;;;;;;;;;;;;;;;5143774;27;19907;-67
2021/06/17 10:04:49;;;;;;;;;;;;;;;;;;5145463;27;20004;-68
2021/06/17 10:07:15;;;;;;;;;;;;;;;;;;5125805;27;19927;-67
2021/06/17 10:09:41;;;;;;;;;;;;;;;;;;5142341;27;19923;-67
2021/06/17 10:12:07;;;;;;;;;;;;;;;;;;5143206;27;19911;-67
2021/06/17 10:14:33;;;;;;;;;;;;;;;;;;5137935;27;19912;-67
2021/06/17 10:16:59;;;;;;;;;;;;;;;;;;5142404;27;19911;-67
2021/06/17 10:19:25;;;;;;;;;;;;;;;;;;5140490;27;19911;-67
2021/06/17 10:21:51;;;;;;;;;;;;;;;;;;5132911;27;20112;-66
2021/06/17 10:24:17;;;;;;;;;;;;;;;;;;5128692;27;19918;-67
2021/06/17 10:26:43;;;;;;;;;;;;;;;;;;5128189;27;19916;-67
2021/06/17 10:29:09;;;;;;;;;;;;;;;;;;5126044;27;20289;-67
2021/06/17 10:31:35;;;;;;;;;;;;;;;;;;5131565;27;19911;-67
2021/06/17 10:34:01;;;;;;;;;;;;;;;;;;5132752;27;19911;-67
2021/06/17 10:36:37;;;;;;;;;;;;;;;;;;5133913;27;19918;-67
2021/06/17 10:39:03;;;;;;;;;;;;;;;;;;5129940;27;20293;-66
2021/06/17 10:41:39;;;;;;;;;;;;;;;;;;5129898;27;19912;-66
2021/06/17 10:44:05;;;;;;;;;;;;;;;;;;5136358;27;19907;-66
2021/06/17 10:46:31;;;;;;;;;;;;;;;;;;5135531;27;20361;-66
2021/06/17 10:48:57;;;;;;;;;;;;;;;;;;5093006;28;19915;-66
2021/06/17 10:51:23;;;;;;;;;;;;;;;;;;5125601;27;20377;-67
2021/06/17 10:53:50;;;;;;;;;;;;;;;;;;5129983;27;20272;-67
2021/06/17 10:56:16;;;;;;;;;;;;;;;;;;5133800;27;19915;-67
2021/06/17 10:58:43;;;;;;;;;;;;;;;;;;5130305;27;19908;-67
2021/06/17 11:01:09;;;;;;;;;;;;;;;;;;5124988;27;19940;-67
2021/06/17 11:03:35;;;;;;;;;;;;;;;;;;5132211;27;19912;-68
2021/06/17 11:06:01;;;;;;;;;;;;;;;;;;5132237;27;19911;-67
2021/06/17 11:08:28;;;;;;;;;;;;;;;;;;5129770;27;20010;-67
2021/06/17 11:10:54;;;;;;;;;;;;;;;;;;5135651;27;20443;-68
2021/06/17 11:13:20;;;;;;;;;;;;;;;;;;5133521;27;19911;-68
2021/06/17 11:15:46;;;;;;;;;;;;;;;;;;5131591;27;19919;-68
2021/06/17 11:18:12;;;;;;;;;;;;;;;;;;5126573;27;20354;-69
2021/06/17 11:20:38;;;;;;;;;;;;;;;;;;5111280;27;19916;-69
2021/06/17 11:23:04;;;;;;;;;;;;;;;;;;5136227;27;19907;-68
2021/06/17 11:25:30;;;;;;;;;;;;;;;;;;5133075;27;19944;-69
2021/06/17 11:27:59;;;;;;;;;;;;;;;;;;5131893;27;19912;-68
2021/06/17 11:30:25;;;;;;;;;;;;;;;;;;5123035;27;19970;-68
2021/06/17 11:32:53;;;;;;;;;;;;;;;;;;5129183;27;19958;-68
2021/06/17 11:35:19;;;;;;;;;;;;;;;;;;5131734;27;19914;-69
2021/06/17 11:37:45;;;;;;;;;;;;;;;;;;5132570;27;19908;-69
2021/06/17 11:40:12;;;;;;;;;;;;;;;;;;5129820;27;19911;-69
2021/06/17 11:42:38;;;;;;;;;;;;;;;;;;5133292;27;20002;-69
2021/06/17 11:45:04;;;;;;;;;;;;;;;;;;5132869;27;19946;-69
2021/06/17 11:47:30;;;;;;;;;;;;;;;;;;5129711;27;19920;-69
2021/06/17 11:49:56;;;;;;;;;;;;;;;;;;5116753;27;19916;-69
2021/06/17 11:52:22;;;;;;;;;;;;;;;;;;5134359;27;19915;-69
2021/06/17 11:54:48;;;;;;;;;;;;;;;;;;5137174;27;20354;-69
2021/06/17 11:57:13;;;;;;;;;;;;;;;;;;5137340;27;20376;-69
2021/06/17 11:59:39;;;;;;;;;;;;;;;;;;5125230;27;19997;-69
2021/06/17 12:02:05;;;;;;;;;;;;;;;;;;5139108;27;19914;-69
2021/06/17 12:04:31;;;;;;;;;;;;;;;;;;5138739;27;20224;-69
2021/06/17 12:06:57;;;;;;;;;;;;;;;;;;5136953;27;19956;-69
2021/06/17 12:09:23;;;;;;;;;;;;;;;;;;5135070;27;20018;-69
2021/06/17 12:11:49;;;;;;;;;;;;;;;;;;5133673;27;19919;-69
2021/06/17 12:14:15;;;;;;;;;;;;;;;;;;5118541;27;19908;-69
2021/06/17 12:16:40;;;;;;;;;;;;;;;;;;5137941;27;20350;-69
2021/06/17 12:19:06;;;;;;;;;;;;;;;;;;5124697;27;19916;-69
2021/06/17 12:21:33;;;;;;;;;;;;;;;;;;5127796;27;20394;-69
2021/06/17 12:23:59;;;;;;;;;;;;;;;;;;5135299;27;20406;-69
2021/06/17 12:26:25;;;;;;;;;;;;;;;;;;5134700;27;20006;-69
2021/06/17 12:28:51;;;;;;;;;;;;;;;;;;5133149;27;20002;-69
2021/06/17 12:31:17;;;;;;;;;;;;;;;;;;5134254;27;19951;-69
2021/06/17 12:33:43;;;;;;;;;;;;;;;;;;5135471;27;19916;-69
2021/06/17 12:36:09;;;;;;;;;;;;;;;;;;5136509;27;19947;-69
2021/06/17 12:38:35;;;;;;;;;;;;;;;;;;5130833;27;20004;-69
2021/06/17 12:41:01;;;;;;;;;;;;;;;;;;5151468;27;19907;-69
2021/06/17 12:43:27;;;;;;;;;;;;;;;;;;5136753;27;19954;-69
2021/06/17 12:45:52;;;;;;;;;;;;;;;;;;5122735;27;19912;-69
2021/06/17 12:48:32;;;;;;;;;;;;;;;;;;5130492;27;20286;-69
2021/06/17 12:53:42;;;;;;;;;;;;;;;;;;5117195;27;19964;-69
2021/06/17 12:56:08;;;;;;;;;;;;;;;;;;5137349;27;20190;-69
2021/06/17 12:58:34;;;;;;;;;;;;;;;;;;5133460;27;19908;-69
2021/06/17 13:01:00;;;;;;;;;;;;;;;;;;5131248;27;20008;-69
2021/06/17 13:03:26;;;;;;;;;;;;;;;;;;5135449;27;19980;-69
2021/06/17 13:05:53;;;;;;;;;;;;;;;;;;5133819;27;19911;-69
2021/06/17 13:08:18;;;;;;;;;;;;;;;;;;5134236;27;20269;-69
2021/06/17 13:10:44;;;;;;;;;;;;;;;;;;5136835;27;19915;-69
2021/06/17 13:13:10;;;;;;;;;;;;;;;;;;5135476;27;19918;-69
2021/06/17 13:15:36;;;;;;;;;;;;;;;;;;5135537;27;20362;-69
2021/06/17 13:18:02;;;;;;;;;;;;;;;;;;5113229;27;19918;-69
2021/06/17 13:20:28;;;;;;;;;;;;;;;;;;5115347;27;20014;-69
2021/06/17 13:22:54;;;;;;;;;;;;;;;;;;5138307;27;19939;-69
2021/06/17 13:25:20;;;;;;;;;;;;;;;;;;5135544;27;19912;-69
2021/06/17 13:27:46;;;;;;;;;;;;;;;;;;5135255;27;20369;-69
2021/06/17 13:30:12;;;;;;;;;;;;;;;;;;5127407;27;19919;-69
2021/06/17 13:32:37;;;;;;;;;;;;;;;;;;5130368;27;19919;-69
2021/06/17 13:35:04;;;;;;;;;;;;;;;;;;5138089;27;19915;-69
2021/06/17 13:37:30;;;;;;;;;;;;;;;;;;5135170;27;20338;-68
2021/06/17 13:39:56;;;;;;;;;;;;;;;;;;5134184;27;20033;-68
2021/06/17 13:42:21;;;;;;;;;;;;;;;;;;5135145;27;19915;-68
2021/06/17 13:44:49;;;;;;;;;;;;;;;;;;5131428;27;19912;-68
2021/06/17 13:47:15;;;;;;;;;;;;;;;;;;5135208;27;19907;-68
2021/06/17 13:49:41;;;;;;;;;;;;;;;;;;5121671;27;19938;-68
2021/06/17 13:52:07;;;;;;;;;;;;;;;;;;5133848;27;19919;-68
2021/06/17 13:54:33;;;;;;;;;;;;;;;;;;5134880;27;19922;-68
2021/06/17 13:56:59;;;;;;;;;;;;;;;;;;5132866;27;20287;-68
2021/06/17 13:59:25;;;;;;;;;;;;;;;;;;5125004;27;20844;-68
2021/06/17 14:01:51;;;;;;;;;;;;;;;;;;5136477;27;20358;-68
2021/06/17 14:04:17;;;;;;;;;;;;;;;;;;5134292;27;19956;-68
2021/06/17 14:06:43;;;;;;;;;;;;;;;;;;5135917;27;19912;-68
2021/06/17 14:09:09;;;;;;;;;;;;;;;;;;5132694;27;19927;-68
2021/06/17 14:11:35;;;;;;;;;;;;;;;;;;5130109;27;19918;-68
2021/06/17 14:14:01;;;;;;;;;;;;;;;;;;5136150;27;19915;-68
2021/06/17 14:16:27;;;;;;;;;;;;;;;;;;5133663;27;20008;-68
2021/06/17 14:18:53;;;;;;;;;;;;;;;;;;5128281;27;19915;-68
2021/06/17 14:21:19;;;;;;;;;;;;;;;;;;5123717;27;19954;-68
2021/06/17 14:23:44;;;;;;;;;;;;;;;;;;5130928;27;19912;-68
2021/06/17 14:26:10;;;;;;;;;;;;;;;;;;5134571;27;20370;-68
2021/06/17 14:28:36;;;;;;;;;;;;;;;;;;5132386;27;19912;-68
2021/06/17 14:31:02;;;;;;;;;;;;;;;;;;5131689;27;19962;-68
2021/06/17 14:33:28;;;;;;;;;;;;;;;;;;5133613;27;19927;-68
2021/06/17 14:35:54;;;;;;;;;;;;;;;;;;5132423;27;19912;-68
2021/06/17 14:38:20;;;;;;;;;;;;;;;;;;5131536;27;19911;-69
2021/06/17 14:40:46;;;;;;;;;;;;;;;;;;5137516;27;19918;-69
2021/06/17 14:43:12;;;;;;;;;;;;;;;;;;5128610;27;19959;-69
2021/06/17 14:45:38;;;;;;;;;;;;;;;;;;5131302;27;19916;-68
2021/06/17 14:48:04;;;;;;;;;;;;;;;;;;5130903;27;20026;-69
2021/06/17 14:50:30;;;;;;;;;;;;;;;;;;5125544;27;19920;-69
2021/06/17 14:52:56;;;;;;;;;;;;;;;;;;5147576;27;20361;-68
2021/06/17 14:55:22;;;;;;;;;;;;;;;;;;5134005;27;19918;-68
2021/06/17 14:57:48;;;;;;;;;;;;;;;;;;5134325;27;20257;-68
2021/06/17 15:00:14;;;;;;;;;;;;;;;;;;5125350;27;20044;-68
2021/06/17 15:02:39;;;;;;;;;;;;;;;;;;5111006;28;19998;-68
2021/06/17 15:05:05;;;;;;;;;;;;;;;;;;5130205;27;19915;-67
2021/06/17 15:07:31;;;;;;;;;;;;;;;;;;5134866;27;19908;-67
2021/06/17 15:09:57;;;;;;;;;;;;;;;;;;5135523;27;19931;-68
2021/06/17 15:12:23;;;;;;;;;;;;;;;;;;5130880;27;19951;-68
2021/06/17 15:14:49;;;;;;;;;;;;;;;;;;5140106;27;19924;-68
2021/06/17 15:17:16;;;;;;;;;;;;;;;;;;5136245;27;19914;-68
2021/06/17 15:19:42;;;;;;;;;;;;;;;;;;5120169;27;20373;-68
2021/06/17 15:22:08;;;;;;;;;;;;;;;;;;5128760;27;19915;-68
2021/06/17 15:24:34;;;;;;;;;;;;;;;;;;5116565;27;19911;-67
2021/06/17 15:27:00;;;;;;;;;;;;;;;;;;5144957;27;19917;-68
2021/06/17 15:29:26;;;;;;;;;;;;;;;;;;5126352;27;20595;-66
2021/06/17 15:31:52;;;;;;;;;;;;;;;;;;5139675;27;19907;-67
2021/06/17 15:34:19;;;;;;;;;;;;;;;;;;5133048;27;19931;-66
2021/06/17 15:36:46;;;;;;;;;;;;;;;;;;5131974;27;19955;-66
2021/06/17 15:39:12;;;;;;;;;;;;;;;;;;5131631;27;19911;-66
2021/06/17 15:41:38;;;;;;;;;;;;;;;;;;5130819;27;19935;-66
2021/06/17 15:44:03;;;;;;;;;;;;;;;;;;5139322;27;19923;-66
2021/06/17 15:46:29;;;;;;;;;;;;;;;;;;5136198;27;20284;-64
2021/06/17 15:48:55;;;;;;;;;;;;;;;;;;5135341;27;19918;-64
2021/06/17 15:51:21;;;;;;;;;;;;;;;;;;5139289;27;19915;-65
2021/06/17 15:53:47;;;;;;;;;;;;;;;;;;5121404;27;19912;-66
2021/06/17 15:56:13;;;;;;;;;;;;;;;;;;5136845;27;19907;-66
2021/06/17 15:58:39;;;;;;;;;;;;;;;;;;5133770;27;19980;-65
2021/06/17 16:01:05;;;;;;;;;;;;;;;;;;5133348;27;19919;-65
2021/06/17 16:03:30;;;;;;;;;;;;;;;;;;5134290;27;20282;-66
2021/06/17 16:05:56;;;;;;;;;;;;;;;;;;5135394;27;20014;-66
2021/06/17 16:08:23;;;;;;;;;;;;;;;;;;5134553;27;19960;-66
2021/06/17 16:10:49;;;;;;;;;;;;;;;;;;5138614;27;19915;-64
2021/06/17 16:13:17;;;;;;;;;;;;;;;;;;5136017;27;19918;-65
2021/06/17 16:15:42;;;;;;;;;;;;;;;;;;5135911;27;19922;-65
2021/06/17 16:18:08;;;;;;;;;;;;;;;;;;5137125;27;19915;-65
2021/06/17 16:20:34;;;;;;;;;;;;;;;;;;5115882;27;19963;-64
2021/06/17 16:23:00;;;;;;;;;;;;;;;;;;5140023;27;19929;-65
2021/06/17 16:25:26;;;;;;;;;;;;;;;;;;5135964;27;19960;-64
2021/06/17 16:27:52;;;;;;;;;;;;;;;;;;5137502;27;19950;-64
2021/06/17 16:30:18;;;;;;;;;;;;;;;;;;5128861;27;19919;-64
2021/06/17 16:32:44;;;;;;;;;;;;;;;;;;5133272;27;19990;-64
2021/06/17 16:35:10;;;;;;;;;;;;;;;;;;5137813;27;19911;-61
2021/06/17 16:37:36;;;;;;;;;;;;;;;;;;5131926;27;19908;-61
2021/06/17 16:40:01;;;;;;;;;;;;;;;;;;5121171;27;19911;-61
2021/06/17 16:42:28;;;;;;;;;;;;;;;;;;5141731;27;19918;-61
2021/06/17 16:44:54;;;;;;;;;;;;;;;;;;5141952;27;19923;-62